createdAt,value
2023-03-07T00:04:05.147Z,2.33
2023-03-07T00:09:08.973Z,2.55
2023-03-07T00:14:12.679Z,2.10
2023-03-07T00:19:18.659Z,1.50
2023-03-07T00:24:22.434Z,1.30
2023-03-07T00:29:26.208Z,1.37
2023-03-07T00:34:31.290Z,1.98
2023-03-07T00:39:37.692Z,1.55
2023-03-07T00:44:41.403Z,2.40
2023-03-07T00:49:46.538Z,2.72
2023-03-07T00:54:50.242Z,2.78
2023-03-07T00:59:54.590Z,2.92
2023-03-07T01:04:59.824Z,3.60
2023-03-07T01:10:03.701Z,3.90
2023-03-07T01:15:08.756Z,4.97
2023-03-07T01:20:15.416Z,7.40
2023-03-07T01:25:19.364Z,6.87
2023-03-07T01:30:23.253Z,7.85
2023-03-07T01:35:29.185Z,8.55
2023-03-07T01:40:33.416Z,9.98
2023-03-07T01:46:17.553Z,9.82
2023-03-07T01:51:24.056Z,11.00
2023-03-07T01:56:28.916Z,10.27
2023-03-07T02:01:33.253Z,11.77
2023-03-07T02:06:41.205Z,9.55
2023-03-07T02:11:47.186Z,8.48
2023-03-07T02:16:50.952Z,7.82
2023-03-07T02:22:08.909Z,6.97
2023-03-07T02:27:15.406Z,18.73
2023-03-07T02:32:19.641Z,14.80
2023-03-07T02:37:27.555Z,14.60
2023-03-07T02:42:36.923Z,7.10
2023-03-07T02:47:42.332Z,7.20
2023-03-07T02:52:47.355Z,13.40
2023-03-07T02:57:53.732Z,6.50
2023-03-07T03:02:57.872Z,11.48
2023-03-07T03:08:01.643Z,7.10
2023-03-07T03:13:08.094Z,5.70
2023-03-07T03:18:12.105Z,7.30
2023-03-07T03:23:15.900Z,6.95
2023-03-07T03:28:21.870Z,6.80
2023-03-07T03:33:26.319Z,6.05
2023-03-07T03:38:29.968Z,5.25
2023-03-07T03:43:36.248Z,6.30
2023-03-07T03:48:40.860Z,5.40
2023-03-07T03:53:44.832Z,5.18
2023-03-07T03:58:51.507Z,5.07
2023-03-07T04:03:56.239Z,4.65
2023-03-07T04:09:00.175Z,6.07
2023-03-07T04:14:05.612Z,4.55
2023-03-07T04:19:12.881Z,5.60
2023-03-07T04:24:18.794Z,5.20
2023-03-07T04:29:25.245Z,4.57
2023-03-07T04:34:29.440Z,4.80
2023-03-07T04:39:33.204Z,4.53
2023-03-07T04:44:38.738Z,4.25
2023-03-07T04:49:42.743Z,4.93
2023-03-07T04:54:46.674Z,5.45
2023-03-07T04:59:52.816Z,6.28
2023-03-07T05:04:58.397Z,7.35
2023-03-07T05:10:02.211Z,7.47
2023-03-07T05:15:08.721Z,6.62
2023-03-07T05:20:13.166Z,5.82
2023-03-07T05:25:17.710Z,6.18
2023-03-07T05:30:22.927Z,6.20
2023-03-07T05:35:27.200Z,5.55
2023-03-07T05:40:31.585Z,5.97
2023-03-07T05:45:37.496Z,5.68
2023-03-07T05:50:42.068Z,5.53
2023-03-07T05:55:46.250Z,5.75
2023-03-07T06:00:52.532Z,6.30
2023-03-07T06:05:56.725Z,6.93
2023-03-07T06:11:01.099Z,5.60
2023-03-07T06:16:06.803Z,6.82
2023-03-07T06:21:15.976Z,5.95
2023-03-07T06:26:20.429Z,7.20
2023-03-07T06:31:26.214Z,7.12
2023-03-07T06:36:30.584Z,7.18
2023-03-07T06:41:34.881Z,7.07
2023-03-07T06:46:40.721Z,7.03
2023-03-07T06:51:45.925Z,8.15
2023-03-07T06:56:49.816Z,8.10
2023-03-07T07:01:55.649Z,7.43
2023-03-07T07:06:59.611Z,7.40
2023-03-07T07:12:05.287Z,8.27
2023-03-07T07:17:11.333Z,7.87
2023-03-07T07:22:18.024Z,9.07
2023-03-07T07:27:21.850Z,8.25
2023-03-07T07:32:27.319Z,7.50
2023-03-07T07:37:31.476Z,7.32
2023-03-07T07:42:35.297Z,6.87
2023-03-07T07:47:41.112Z,7.97
2023-03-07T07:52:45.005Z,7.70
2023-03-07T07:57:49.017Z,7.85
2023-03-07T08:02:54.186Z,7.80
2023-03-07T08:07:57.988Z,8.00
2023-03-07T08:13:01.681Z,8.63
2023-03-07T08:18:06.788Z,9.20
2023-03-07T08:23:10.553Z,9.10
2023-03-07T08:28:14.269Z,10.20
2023-03-07T08:33:19.340Z,10.82
2023-03-07T08:38:23.016Z,11.25
2023-03-07T08:43:26.677Z,10.35
2023-03-07T08:48:31.978Z,12.25
2023-03-07T08:53:35.738Z,13.27
2023-03-07T08:58:40.106Z,14.52
2023-03-07T09:03:45.235Z,13.85
2023-03-07T09:08:49.455Z,13.43
2023-03-07T09:13:53.434Z,14.35
2023-03-07T09:18:58.556Z,14.77
2023-03-07T09:24:02.284Z,12.18
2023-03-07T09:29:05.990Z,12.50
2023-03-07T09:34:11.097Z,12.07
2023-03-07T09:39:15.484Z,11.75
2023-03-07T09:44:34.110Z,11.20
2023-03-07T09:49:47.186Z,10.23
2023-03-07T09:54:56.864Z,9.52
2023-03-07T10:00:05.586Z,10.57
2023-03-07T10:05:28.457Z,10.05
2023-03-07T10:10:39.760Z,12.18
2023-03-07T10:15:46.687Z,11.52
2023-03-07T10:20:53.933Z,11.35
2023-03-07T10:26:04.654Z,7.80
2023-03-07T10:31:21.717Z,9.48
2023-03-07T10:36:37.235Z,9.20
2023-03-07T10:41:41.004Z,12.43
2023-03-07T10:46:55.426Z,11.80
2023-03-07T10:52:05.681Z,12.35
2023-03-07T10:57:11.230Z,13.18
2023-03-07T11:02:31.433Z,15.82
2023-03-07T11:07:37.465Z,15.70
2023-03-07T11:12:46.679Z,15.48
2023-03-07T11:17:50.758Z,14.40
2023-03-07T11:23:15.851Z,12.77
2023-03-07T11:28:31.276Z,12.65
2023-03-07T11:33:58.570Z,10.68
2023-03-07T11:44:22.834Z,11.23
2023-03-07T11:49:40.285Z,9.02
2023-03-07T11:54:53.636Z,8.67
2023-03-07T12:00:15.812Z,8.93
2023-03-07T12:05:39.449Z,10.65
2023-03-07T12:10:55.718Z,11.25
2023-03-07T12:16:12.391Z,11.90
2023-03-07T12:21:28.857Z,12.45
2023-03-07T12:26:42.042Z,11.50
2023-03-07T12:31:50.328Z,11.77
2023-03-07T12:36:58.327Z,10.80
2023-03-07T12:42:11.948Z,10.15
2023-03-07T12:47:24.427Z,10.15
2023-03-07T12:52:43.357Z,9.38
2023-03-07T12:57:55.241Z,8.57
2023-03-07T13:03:02.361Z,8.85
2023-03-07T13:08:08.405Z,7.20
2023-03-07T13:13:45.693Z,6.20
2023-03-07T13:18:50.919Z,7.13
2023-03-07T13:24:34.909Z,4.87
2023-03-07T13:30:07.076Z,5.10
2023-03-07T13:35:12.333Z,3.60
2023-03-07T13:40:54.856Z,4.22
2023-03-07T13:45:59.329Z,5.80
2023-03-07T13:51:09.334Z,4.68
2023-03-07T13:56:25.108Z,3.50
2023-03-07T14:01:32.965Z,5.28
2023-03-07T14:06:42.395Z,2.72
2023-03-07T14:11:56.175Z,2.12
2023-03-07T14:17:15.420Z,2.30
2023-03-07T14:22:31.938Z,1.87
2023-03-07T14:27:51.200Z,8.60
2023-03-07T14:32:54.966Z,3.92
2023-03-07T14:38:00.145Z,1.90
2023-03-07T14:43:21.232Z,2.22
2023-03-07T14:49:02.261Z,2.30
2023-03-07T14:54:14.758Z,1.60
2023-03-07T14:59:28.053Z,1.70
2023-03-07T15:04:35.799Z,3.15
2023-03-07T15:09:40.992Z,3.75
2023-03-07T15:14:47.569Z,3.80
2023-03-07T15:19:56.365Z,4.18
2023-03-07T15:25:01.650Z,3.97
2023-03-07T15:30:19.644Z,4.72
2023-03-07T15:35:23.492Z,5.75
2023-03-07T15:40:31.340Z,5.03
2023-03-07T15:45:38.205Z,6.55
2023-03-07T15:50:41.928Z,6.47
2023-03-07T15:55:56.821Z,4.55
2023-03-07T16:01:09.020Z,5.30
2023-03-07T16:06:36.418Z,3.78
2023-03-07T16:11:42.878Z,2.55
2023-03-07T16:16:46.678Z,3.40
2023-03-07T16:21:50.426Z,2.22
2023-03-07T16:26:55.481Z,2.20
2023-03-07T16:32:01.274Z,2.72
2023-03-07T16:37:05.117Z,3.40
2023-03-07T16:42:17.060Z,8.23
2023-03-07T16:47:20.773Z,7.32
2023-03-07T16:52:25.786Z,8.00
2023-03-07T16:57:30.845Z,9.05
2023-03-07T17:02:34.741Z,7.47
2023-03-07T17:07:38.470Z,13.60
2023-03-07T17:12:44.466Z,8.57
2023-03-07T17:17:48.459Z,7.37
2023-03-07T17:22:53.596Z,7.60
2023-03-07T17:28:02.376Z,6.80
2023-03-07T17:33:06.146Z,7.60
2023-03-07T17:38:09.861Z,8.25
2023-03-07T17:43:15.170Z,7.30
2023-03-07T17:48:18.915Z,6.87
2023-03-07T17:53:22.697Z,7.00
2023-03-07T17:58:27.792Z,8.07
2023-03-07T18:03:31.501Z,8.88
2023-03-07T18:08:35.618Z,6.87
2023-03-07T18:13:42.167Z,7.85
2023-03-07T18:18:58.208Z,7.45
2023-03-07T18:24:03.481Z,7.93
2023-03-07T18:29:08.567Z,10.27
2023-03-07T18:34:12.312Z,9.10
2023-03-07T18:39:16.022Z,8.98
2023-03-07T18:44:21.132Z,8.48
2023-03-07T18:49:24.918Z,12.25
2023-03-07T18:54:28.714Z,10.13
2023-03-07T18:59:33.837Z,9.93
2023-03-07T19:04:37.782Z,10.45
2023-03-07T19:09:43.874Z,8.02
2023-03-07T19:14:49.750Z,7.00
2023-03-07T19:19:59.042Z,6.70
2023-03-07T19:25:03.782Z,8.32
2023-03-07T19:30:11.230Z,9.52
2023-03-07T19:35:14.989Z,9.70
2023-03-07T19:40:18.792Z,9.77
2023-03-07T19:45:23.908Z,9.52
2023-03-07T19:50:27.630Z,9.98
2023-03-07T19:55:31.609Z,8.43
2023-03-07T20:00:38.704Z,8.75
2023-03-07T20:05:43.316Z,10.25
2023-03-07T20:10:47.033Z,16.15
2023-03-07T20:15:53.088Z,10.40
2023-03-07T20:20:56.914Z,10.10
2023-03-07T20:26:05.825Z,10.93
2023-03-07T20:31:11.274Z,9.85
2023-03-07T20:36:18.263Z,11.32
2023-03-07T20:41:25.209Z,11.27
2023-03-07T20:46:31.526Z,10.63
2023-03-07T20:51:37.842Z,9.40
2023-03-07T20:56:42.168Z,8.02
2023-03-07T21:01:47.960Z,7.78
2023-03-07T21:06:52.229Z,10.23
2023-03-07T21:11:56.065Z,8.32
2023-03-07T21:17:02.604Z,7.43
2023-03-07T21:22:06.377Z,10.07
2023-03-07T21:27:10.325Z,8.63
2023-03-07T21:32:15.521Z,8.82
2023-03-07T21:37:20.585Z,7.50
2023-03-07T21:42:24.420Z,8.30
2023-03-07T21:47:29.530Z,8.23
2023-03-07T21:52:33.255Z,7.60
2023-03-07T21:57:37.241Z,8.30
2023-03-07T22:02:42.302Z,7.18
2023-03-07T22:07:46.092Z,8.05
2023-03-07T22:12:49.855Z,7.90
2023-03-07T22:17:55.042Z,8.48
2023-03-07T22:22:58.748Z,8.95
2023-03-07T22:28:02.574Z,8.93
2023-03-07T22:33:07.709Z,10.25
2023-03-07T22:38:11.806Z,10.10
2023-03-07T22:43:15.653Z,9.88
2023-03-07T22:48:20.718Z,11.12
2023-03-07T22:53:27.056Z,12.50
2023-03-07T22:58:30.951Z,11.98
2023-03-07T23:03:36.064Z,12.18
2023-03-07T23:08:39.839Z,12.27
2023-03-07T23:13:44.187Z,13.70
2023-03-07T23:18:50.751Z,13.25
2023-03-07T23:23:55.300Z,13.27
2023-03-07T23:28:59.843Z,12.95
2023-03-07T23:34:07.799Z,14.93
2023-03-07T23:44:15.320Z,13.60
2023-03-07T23:49:20.996Z,16.73
2023-03-07T23:54:24.844Z,16.02
2023-03-07T23:59:28.641Z,16.60
